createdAt,value
2023-01-29T00:01:16.326Z,52508.57
2023-01-29T00:03:47.441Z,52495.72
2023-01-29T00:06:18.464Z,52492.90
2023-01-29T00:08:53.659Z,52487.27
2023-01-29T00:11:25.767Z,52492.09
2023-01-29T00:13:56.986Z,52507.37
2023-01-29T00:16:28.343Z,52501.74
2023-01-29T00:18:59.338Z,52490.89
2023-01-29T00:21:32.385Z,52495.31
2023-01-29T00:24:03.894Z,52497.73
2023-01-29T00:26:35.392Z,52485.67
2023-01-29T00:29:06.620Z,52505.76
2023-01-29T00:31:38.569Z,52505.36
2023-01-29T00:34:12.205Z,52526.26
2023-01-29T00:36:45.183Z,52496.52
2023-01-29T00:39:17.023Z,52501.34
2023-01-29T00:42:06.091Z,52502.54
2023-01-29T00:44:55.246Z,52496.92
2023-01-29T00:47:33.932Z,52505.76
2023-01-29T00:50:05.609Z,52496.51
2023-01-29T00:52:37.119Z,52502.95
2023-01-29T00:55:10.390Z,52507.37
2023-01-29T00:57:41.683Z,52503.34
2023-01-29T01:00:14.193Z,52509.38
2023-01-29T01:03:04.651Z,52482.86
2023-01-29T01:05:37.224Z,52500.13
2023-01-29T01:08:29.033Z,52499.33
2023-01-29T01:11:01.853Z,52499.33
2023-01-29T01:13:33.070Z,52507.77
2023-01-29T01:16:04.460Z,52506.56
2023-01-29T01:18:35.580Z,52494.51
2023-01-29T01:21:06.872Z,52500.54
2023-01-29T01:23:38.209Z,52506.97
2023-01-29T01:26:12.953Z,52499.33
2023-01-29T01:28:44.648Z,52486.47
2023-01-29T01:31:16.241Z,52500.14
2023-01-29T01:33:47.285Z,52514.21
2023-01-29T01:36:38.293Z,52498.13
2023-01-29T01:39:09.881Z,52521.03
2023-01-29T01:41:41.404Z,52507.37
2023-01-29T01:44:25.911Z,52498.52
2023-01-29T01:46:57.908Z,52509.38
2023-01-29T01:49:29.051Z,52506.16
2023-01-29T01:52:01.411Z,52502.14
2023-01-29T01:54:32.681Z,52490.49
2023-01-29T01:57:09.698Z,52503.75
2023-01-29T01:59:41.426Z,52503.75
2023-01-29T02:02:30.452Z,52516.61
2023-01-29T02:05:19.355Z,52517.01
2023-01-29T02:08:08.284Z,52506.96
2023-01-29T02:10:39.957Z,52510.18
2023-01-29T02:13:11.414Z,52505.36
2023-01-29T02:15:47.100Z,52515.41
2023-01-29T02:18:19.085Z,52497.32
2023-01-29T02:20:55.368Z,52503.35
2023-01-29T02:23:36.497Z,52506.97
2023-01-29T02:26:12.260Z,52510.59
2023-01-29T02:28:43.755Z,52511.39
2023-01-29T02:31:17.626Z,52513.80
2023-01-29T02:33:53.320Z,52496.52
2023-01-29T02:36:28.950Z,52510.18
2023-01-29T02:39:01.646Z,52510.18
2023-01-29T02:41:33.541Z,52509.38
2023-01-29T02:44:06.299Z,52502.14
2023-01-29T02:46:41.570Z,52497.73
2023-01-29T02:49:14.819Z,52494.11
2023-01-29T02:51:46.511Z,52508.98
2023-01-29T02:54:22.036Z,52509.78
2023-01-29T02:56:55.630Z,52504.96
2023-01-29T02:59:27.687Z,52494.11
2023-01-29T03:01:59.598Z,52493.30
2023-01-29T03:04:30.966Z,52503.35
2023-01-29T03:07:02.466Z,52494.11
2023-01-29T03:09:34.734Z,52499.73
2023-01-29T03:12:20.062Z,52506.57
2023-01-29T03:15:09.318Z,52493.71
2023-01-29T03:17:41.856Z,52489.28
2023-01-29T03:20:15.730Z,52506.16
2023-01-29T03:22:47.464Z,52515.81
2023-01-29T03:25:37.283Z,52501.74
2023-01-29T03:28:27.968Z,52496.92
2023-01-29T03:31:18.443Z,52508.57
2023-01-29T03:33:55.226Z,52507.77
2023-01-29T03:36:26.679Z,52515.80
2023-01-29T03:38:57.989Z,52506.16
2023-01-29T03:41:30.147Z,52502.14
2023-01-29T03:44:03.004Z,52487.27
2023-01-29T03:46:39.168Z,52478.43
2023-01-29T03:49:11.323Z,52499.33
2023-01-29T03:51:47.374Z,52488.48
2023-01-29T03:54:20.291Z,52514.20
2023-01-29T03:56:55.699Z,52504.55
2023-01-29T03:59:34.933Z,52499.73
2023-01-29T04:02:28.290Z,52484.46
2023-01-29T04:05:03.393Z,52504.55
2023-01-29T04:07:36.920Z,52498.13
2023-01-29T04:10:09.649Z,52495.31
2023-01-29T04:12:42.708Z,52504.96
2023-01-29T04:15:16.904Z,52502.54
2023-01-29T04:17:50.459Z,52498.93
2023-01-29T04:20:30.151Z,52488.88
2023-01-29T04:23:01.401Z,52507.37
2023-01-29T04:25:33.467Z,52503.75
2023-01-29T04:28:06.443Z,52508.57
2023-01-29T04:30:43.711Z,52511.79
2023-01-29T04:33:19.180Z,52496.52
2023-01-29T04:35:53.678Z,52497.32
2023-01-29T04:38:28.690Z,52519.02
2023-01-29T04:41:01.501Z,52507.37
2023-01-29T04:43:34.515Z,52506.96
2023-01-29T04:46:11.132Z,52501.34
2023-01-29T04:48:45.204Z,52525.45
2023-01-29T04:51:18.635Z,52509.38
2023-01-29T04:53:51.045Z,52521.43
2023-01-29T04:56:22.699Z,52500.94
2023-01-29T04:58:56.632Z,52512.99
2023-01-29T05:01:30.165Z,52520.63
2023-01-29T05:04:01.835Z,52519.02
2023-01-29T05:06:33.446Z,52508.57
2023-01-29T05:09:04.773Z,52522.64
2023-01-29T05:11:36.496Z,52504.55
2023-01-29T05:14:10.487Z,52518.63
2023-01-29T05:16:43.364Z,52519.83
2023-01-29T05:19:15.188Z,52510.99
2023-01-29T05:21:47.752Z,52504.96
2023-01-29T05:24:19.298Z,52527.47
2023-01-29T05:27:08.851Z,52519.43
2023-01-29T05:29:40.379Z,52523.84
2023-01-29T05:32:11.536Z,52509.38
2023-01-29T05:34:47.291Z,52508.18
2023-01-29T05:37:19.145Z,52510.58
2023-01-29T05:39:50.907Z,52503.36
2023-01-29T05:42:22.546Z,52527.46
2023-01-29T05:44:53.820Z,52508.18
2023-01-29T05:47:24.922Z,52529.07
2023-01-29T05:49:55.919Z,52510.18
2023-01-29T05:52:27.644Z,52501.74
2023-01-29T05:54:58.891Z,52516.61
2023-01-29T05:57:30.059Z,52505.36
2023-01-29T06:00:01.399Z,52517.01
2023-01-29T06:02:33.073Z,52507.37
2023-01-29T06:05:07.555Z,52502.14
2023-01-29T06:07:42.287Z,52502.14
2023-01-29T06:10:16.127Z,52513.40
2023-01-29T06:12:49.310Z,52507.77
2023-01-29T06:15:21.402Z,52511.79
2023-01-29T06:17:54.457Z,52508.98
2023-01-29T06:20:26.028Z,52502.14
2023-01-29T06:22:57.069Z,52497.32
2023-01-29T06:25:28.717Z,52503.75
2023-01-29T06:28:00.035Z,52514.20
2023-01-29T06:30:32.457Z,52499.74
2023-01-29T06:33:03.690Z,52509.78
2023-01-29T06:35:34.813Z,52508.57
2023-01-29T06:38:06.140Z,52515.00
2023-01-29T06:40:38.443Z,52521.84
2023-01-29T06:43:09.547Z,52498.52
2023-01-29T06:45:47.464Z,52515.80
2023-01-29T06:48:19.514Z,52501.74
2023-01-29T06:50:50.847Z,52524.25
2023-01-29T06:53:22.335Z,52521.84
2023-01-29T06:55:56.484Z,52517.82
2023-01-29T06:58:27.814Z,52500.14
2023-01-29T07:01:05.419Z,52510.98
2023-01-29T07:03:36.896Z,52502.95
2023-01-29T07:06:09.559Z,52513.40
2023-01-29T07:08:41.124Z,52507.77
2023-01-29T07:11:12.071Z,52499.73
2023-01-29T07:13:43.617Z,52524.25
2023-01-29T07:16:15.154Z,52496.93
2023-01-29T07:18:46.716Z,52511.39
2023-01-29T07:21:18.494Z,52508.57
2023-01-29T07:23:50.078Z,52509.78
2023-01-29T07:26:21.602Z,52516.61
2023-01-29T07:28:53.543Z,52488.88
2023-01-29T07:31:25.133Z,52510.59
2023-01-29T07:33:57.205Z,52501.74
2023-01-29T07:36:28.905Z,52508.57
2023-01-29T07:39:00.145Z,52503.75
2023-01-29T07:41:31.913Z,52502.55
2023-01-29T07:44:04.272Z,52496.92
2023-01-29T07:46:35.347Z,52498.52
2023-01-29T07:49:10.052Z,52491.70
2023-01-29T07:51:41.495Z,52502.54
2023-01-29T07:54:12.993Z,52496.93
2023-01-29T07:56:48.468Z,52487.27
2023-01-29T07:59:20.299Z,52504.55
2023-01-29T08:01:51.820Z,52496.92
2023-01-29T08:04:23.234Z,52514.20
2023-01-29T08:06:55.369Z,52492.10
2023-01-29T08:09:27.094Z,52493.70
2023-01-29T08:12:00.102Z,52490.09
2023-01-29T08:14:32.596Z,52484.46
2023-01-29T08:17:04.343Z,52500.13
2023-01-29T08:19:36.171Z,52487.27
2023-01-29T08:22:08.010Z,52492.10
2023-01-29T08:24:53.346Z,52486.87
2023-01-29T08:27:30.847Z,52491.29
2023-01-29T08:30:02.198Z,52497.73
2023-01-29T08:32:38.328Z,52492.50
2023-01-29T08:35:10.226Z,52500.94
2023-01-29T08:37:41.423Z,52501.74
2023-01-29T08:40:13.970Z,52489.28
2023-01-29T08:42:45.734Z,52493.70
2023-01-29T08:45:16.987Z,52498.13
2023-01-29T08:47:48.677Z,52482.45
2023-01-29T08:50:20.598Z,52512.20
2023-01-29T08:52:51.987Z,52486.47
2023-01-29T08:55:24.226Z,52505.36
2023-01-29T08:57:55.549Z,52492.90
2023-01-29T09:00:26.740Z,52509.78
2023-01-29T09:02:59.909Z,52471.20
2023-01-29T09:05:31.459Z,52501.74
2023-01-29T09:08:02.817Z,52497.32
2023-01-29T09:10:34.622Z,52494.51
2023-01-29T09:13:05.762Z,52500.14
2023-01-29T09:15:37.925Z,52481.24
2023-01-29T09:18:09.573Z,52498.13
2023-01-29T09:20:40.899Z,52496.52
2023-01-29T09:23:12.785Z,52493.71
2023-01-29T09:25:43.926Z,52490.89
2023-01-29T09:28:15.340Z,52498.13
2023-01-29T09:30:46.771Z,52491.29
2023-01-29T09:33:18.820Z,52503.75
2023-01-29T09:35:50.103Z,52496.92
2023-01-29T09:38:21.247Z,52483.66
2023-01-29T09:40:56.569Z,52508.17
2023-01-29T09:43:28.976Z,52508.18
2023-01-29T09:46:01.611Z,52498.93
2023-01-29T09:48:33.362Z,52496.52
2023-01-29T09:51:04.922Z,52499.73
2023-01-29T09:53:38.855Z,52508.57
2023-01-29T09:56:11.709Z,52490.49
2023-01-29T09:58:43.482Z,52491.29
2023-01-29T10:01:17.520Z,52515.41
2023-01-29T10:03:57.053Z,52496.12
2023-01-29T10:06:29.696Z,52506.17
2023-01-29T10:09:17.495Z,52519.02
2023-01-29T10:11:50.503Z,52501.34
2023-01-29T10:14:24.437Z,52476.02
2023-01-29T10:17:00.620Z,52506.56
2023-01-29T10:19:48.080Z,52488.88
2023-01-29T10:22:38.074Z,52493.30
2023-01-29T10:25:11.378Z,52492.09
2023-01-29T10:27:44.747Z,52506.16
2023-01-29T10:30:22.756Z,52496.52
2023-01-29T10:32:53.871Z,52498.52
2023-01-29T10:35:25.333Z,52500.94
2023-01-29T10:37:56.945Z,52502.95
2023-01-29T10:40:30.115Z,52485.67
2023-01-29T10:43:03.775Z,52483.66
2023-01-29T10:45:36.898Z,52495.71
2023-01-29T10:48:21.479Z,52501.74
2023-01-29T10:50:54.055Z,52502.54
2023-01-29T10:53:37.960Z,52514.20
2023-01-29T10:56:22.194Z,52506.56
2023-01-29T10:58:55.714Z,52487.27
2023-01-29T11:01:27.560Z,52495.31
2023-01-29T11:04:00.141Z,52494.11
2023-01-29T11:06:32.320Z,52482.45
2023-01-29T11:09:05.100Z,52492.50
2023-01-29T11:11:38.064Z,52509.78
2023-01-29T11:14:11.282Z,52500.54
2023-01-29T11:16:46.053Z,52493.30
2023-01-29T11:19:17.471Z,52487.68
2023-01-29T11:21:59.257Z,52507.77
2023-01-29T11:24:31.083Z,52500.94
2023-01-29T11:27:01.974Z,52500.13
2023-01-29T11:29:42.913Z,52517.41
2023-01-29T11:32:15.202Z,52498.13
2023-01-29T11:35:01.421Z,52508.98
2023-01-29T11:37:36.584Z,52507.37
2023-01-29T11:40:22.587Z,52505.76
2023-01-29T11:42:53.993Z,52509.78
2023-01-29T11:45:30.372Z,52505.36
2023-01-29T11:48:01.578Z,52502.14
2023-01-29T11:50:33.740Z,52505.76
2023-01-29T11:53:07.239Z,52499.33
2023-01-29T11:55:50.076Z,52483.26
2023-01-29T11:58:22.634Z,52504.15
2023-01-29T12:00:55.587Z,52496.92
2023-01-29T12:03:30.936Z,52508.57
2023-01-29T12:06:02.327Z,52511.39
2023-01-29T12:08:35.325Z,52505.36
2023-01-29T12:11:13.814Z,52489.69
2023-01-29T12:13:44.994Z,52504.15
2023-01-29T12:16:19.448Z,52513.40
2023-01-29T12:18:52.629Z,52485.26
2023-01-29T12:21:25.629Z,52505.76
2023-01-29T12:23:58.765Z,52498.13
2023-01-29T12:26:31.780Z,52503.75
2023-01-29T12:29:09.746Z,52507.37
2023-01-29T12:31:42.562Z,52505.36
2023-01-29T12:34:15.425Z,52507.77
2023-01-29T12:36:53.297Z,52511.79
2023-01-29T12:39:24.583Z,52487.68
2023-01-29T12:41:56.927Z,52511.79
2023-01-29T12:44:30.708Z,52509.78
2023-01-29T12:47:02.816Z,52499.74
2023-01-29T12:49:35.780Z,52495.71
2023-01-29T12:52:09.166Z,52504.16
2023-01-29T12:54:41.614Z,52508.18
2023-01-29T12:57:16.438Z,52495.71
2023-01-29T12:59:48.685Z,52512.59
2023-01-29T13:02:23.247Z,52500.94
2023-01-29T13:04:56.924Z,52500.14
2023-01-29T13:07:30.353Z,52507.37
2023-01-29T13:10:03.945Z,52509.38
2023-01-29T13:12:36.359Z,52508.98
2023-01-29T13:15:11.158Z,52499.73
2023-01-29T13:17:43.073Z,52502.95
2023-01-29T13:20:15.041Z,52510.99
2023-01-29T13:22:47.163Z,52497.32
2023-01-29T13:25:19.462Z,52508.57
2023-01-29T13:27:50.770Z,52519.82
2023-01-29T13:30:28.950Z,52506.96
2023-01-29T13:33:10.261Z,52512.19
2023-01-29T13:36:02.345Z,52500.94
2023-01-29T13:38:36.339Z,52524.65
2023-01-29T13:41:08.913Z,52504.96
2023-01-29T13:43:40.628Z,52509.78
2023-01-29T13:46:12.426Z,52510.99
2023-01-29T13:48:47.290Z,52507.37
2023-01-29T13:51:20.409Z,52500.54
2023-01-29T13:53:57.756Z,52501.74
2023-01-29T13:56:43.196Z,52515.80
2023-01-29T13:59:24.368Z,52493.30
2023-01-29T14:02:06.635Z,52502.54
2023-01-29T14:04:38.314Z,52506.96
2023-01-29T14:07:33.003Z,52498.52
2023-01-29T14:10:13.243Z,52502.95
2023-01-29T14:13:22.088Z,52505.76
2023-01-29T14:16:06.692Z,52504.16
2023-01-29T14:18:38.480Z,52511.39
2023-01-29T14:21:19.173Z,52509.38
2023-01-29T14:23:52.357Z,52529.07
2023-01-29T14:26:29.466Z,52501.74
2023-01-29T14:29:03.861Z,52514.20
2023-01-29T14:31:41.263Z,52512.20
2023-01-29T14:34:17.990Z,52520.63
2023-01-29T14:36:55.780Z,52506.96
2023-01-29T14:39:31.624Z,52501.74
2023-01-29T14:42:03.095Z,52509.38
2023-01-29T14:45:11.560Z,52522.64
2023-01-29T14:47:59.856Z,52519.43
2023-01-29T14:50:44.435Z,52513.80
2023-01-29T14:53:16.244Z,52503.35
2023-01-29T14:55:49.932Z,52518.62
2023-01-29T14:58:21.714Z,52514.20
2023-01-29T15:00:54.196Z,52512.59
2023-01-29T15:03:31.188Z,52502.55
2023-01-29T15:06:02.534Z,52516.21
2023-01-29T15:08:35.769Z,52517.01
2023-01-29T15:11:25.972Z,52509.78
2023-01-29T15:13:58.504Z,52508.98
2023-01-29T15:16:30.950Z,52504.55
2023-01-29T15:19:10.535Z,52517.01
2023-01-29T15:21:42.151Z,52519.02
2023-01-29T15:24:15.657Z,52504.16
2023-01-29T15:26:46.803Z,52516.21
2023-01-29T15:29:23.489Z,52523.04
2023-01-29T15:31:54.832Z,52512.99
2023-01-29T15:34:26.697Z,52525.86
2023-01-29T15:36:57.685Z,52500.94
2023-01-29T15:39:31.253Z,52517.41
2023-01-29T15:42:13.196Z,52504.96
2023-01-29T15:44:47.875Z,52512.99
2023-01-29T15:47:18.942Z,52515.01
2023-01-29T15:49:50.535Z,52533.49
2023-01-29T15:52:23.240Z,52498.13
2023-01-29T15:54:54.421Z,52504.96
2023-01-29T15:57:26.821Z,52510.98
2023-01-29T15:59:58.137Z,52535.50
2023-01-29T16:02:38.301Z,52513.80
2023-01-29T16:05:15.232Z,52504.96
2023-01-29T16:07:50.049Z,52503.35
2023-01-29T16:10:21.638Z,52520.23
2023-01-29T16:12:52.953Z,52487.27
2023-01-29T16:15:36.555Z,52503.35
2023-01-29T16:18:24.681Z,52505.36
2023-01-29T16:20:57.039Z,52482.46
2023-01-29T16:23:33.811Z,52496.92
2023-01-29T16:26:07.130Z,52505.36
2023-01-29T16:28:42.430Z,52502.14
2023-01-29T16:31:14.307Z,52504.15
2023-01-29T16:33:45.859Z,52502.95
2023-01-29T16:36:19.087Z,52513.40
2023-01-29T16:38:53.302Z,52510.19
2023-01-29T16:41:32.516Z,52509.38
2023-01-29T16:44:03.958Z,52495.31
2023-01-29T16:46:36.293Z,52498.13
2023-01-29T16:49:40.129Z,52507.37
2023-01-29T16:52:19.219Z,52496.92
2023-01-29T16:54:50.262Z,52502.95
2023-01-29T16:57:23.040Z,52525.05
2023-01-29T16:59:56.273Z,52500.14
2023-01-29T17:02:28.919Z,52486.47
2023-01-29T17:05:01.571Z,52516.21
2023-01-29T17:07:33.598Z,52526.26
2023-01-29T17:10:05.690Z,52515.01
2023-01-29T17:12:38.881Z,52495.30
2023-01-29T17:15:28.593Z,52502.95
2023-01-29T17:17:59.961Z,52514.60
2023-01-29T17:20:30.869Z,52506.57
2023-01-29T17:23:02.272Z,52511.39
2023-01-29T17:25:33.466Z,52527.46
2023-01-29T17:28:05.037Z,52506.97
2023-01-29T17:30:37.591Z,52498.13
2023-01-29T17:33:12.935Z,52494.11
2023-01-29T17:35:45.040Z,52529.88
2023-01-29T17:38:25.588Z,52521.03
2023-01-29T17:40:57.815Z,52510.99
2023-01-29T17:43:29.329Z,52517.01
2023-01-29T17:46:00.492Z,52514.20
2023-01-29T17:48:31.830Z,52514.20
2023-01-29T17:51:03.518Z,52518.63
2023-01-29T17:53:45.457Z,52496.93
2023-01-29T17:56:18.319Z,52519.02
2023-01-29T17:58:49.583Z,52510.18
2023-01-29T18:01:20.481Z,52498.53
2023-01-29T18:03:52.288Z,52521.03
2023-01-29T18:06:25.423Z,52516.21
2023-01-29T18:08:57.070Z,52507.77
2023-01-29T18:11:28.400Z,52512.59
2023-01-29T18:14:03.603Z,52504.55
2023-01-29T18:16:45.234Z,52515.81
2023-01-29T18:19:17.463Z,52520.23
2023-01-29T18:21:49.287Z,52517.42
2023-01-29T18:24:21.094Z,52504.16
2023-01-29T18:26:52.581Z,52516.21
2023-01-29T18:29:29.696Z,52525.05
2023-01-29T18:32:01.012Z,52526.66
2023-01-29T18:34:32.415Z,52531.48
2023-01-29T18:37:03.912Z,52512.20
2023-01-29T18:39:36.403Z,52522.64
2023-01-29T18:42:08.057Z,52512.99
2023-01-29T18:44:39.000Z,52520.63
2023-01-29T18:47:10.807Z,52509.78
2023-01-29T18:49:45.008Z,52520.23
2023-01-29T18:52:16.193Z,52517.42
2023-01-29T18:54:47.596Z,52516.61
2023-01-29T18:58:26.976Z,52517.01
2023-01-29T19:00:11.825Z,52521.84
2023-01-29T19:02:44.056Z,52510.18
2023-01-29T19:05:15.900Z,52517.81
2023-01-29T19:07:47.662Z,52525.86
2023-01-29T19:10:19.159Z,52510.58
2023-01-29T19:12:51.112Z,52524.25
2023-01-29T19:15:23.044Z,52514.20
2023-01-29T19:17:54.426Z,52517.42
2023-01-29T19:20:25.748Z,52519.82
2023-01-29T19:22:56.734Z,52510.58
2023-01-29T19:25:28.553Z,52523.45
2023-01-29T19:28:00.282Z,52521.44
2023-01-29T19:30:31.836Z,52523.85
2023-01-29T19:33:05.943Z,52515.01
2023-01-29T19:35:37.481Z,52503.35
2023-01-29T19:38:08.714Z,52512.99
2023-01-29T19:40:40.166Z,52511.79
2023-01-29T19:43:13.727Z,52516.21
2023-01-29T19:45:49.577Z,52512.20
2023-01-29T19:48:22.574Z,52537.51
2023-01-29T19:50:54.466Z,52527.46
2023-01-29T19:53:25.985Z,52510.99
2023-01-29T19:56:00.669Z,52508.57
2023-01-29T19:58:32.448Z,52513.39
2023-01-29T20:01:05.339Z,52520.63
2023-01-29T20:03:38.298Z,52529.07
2023-01-29T20:06:09.929Z,52505.76
2023-01-29T20:08:41.157Z,52527.86
2023-01-29T20:11:13.487Z,52519.43
2023-01-29T20:13:45.081Z,52514.60
2023-01-29T20:16:16.464Z,52515.41
2023-01-29T20:18:48.728Z,52530.68
2023-01-29T20:21:21.223Z,52530.68
2023-01-29T20:23:52.791Z,52516.21
2023-01-29T20:26:25.755Z,52516.21
2023-01-29T20:28:56.948Z,52519.82
2023-01-29T20:31:28.986Z,52523.45
2023-01-29T20:34:00.120Z,52530.27
2023-01-29T20:36:31.299Z,52531.48
2023-01-29T20:39:02.645Z,52524.65
2023-01-29T20:41:34.613Z,52519.43
2023-01-29T20:44:05.776Z,52519.82
2023-01-29T20:46:38.400Z,52522.24
2023-01-29T20:49:12.671Z,52535.10
2023-01-29T20:51:44.086Z,52525.86
2023-01-29T20:54:15.455Z,52537.91
2023-01-29T20:56:48.224Z,52527.87
2023-01-29T20:59:19.663Z,52533.09
2023-01-29T21:01:51.118Z,52533.49
2023-01-29T21:04:26.054Z,52507.37
2023-01-29T21:06:57.422Z,52523.85
2023-01-29T21:09:29.768Z,52524.25
2023-01-29T21:12:00.780Z,52527.86
2023-01-29T21:14:32.268Z,52527.46
2023-01-29T21:17:05.165Z,52535.10
2023-01-29T21:19:36.220Z,52528.27
2023-01-29T21:22:07.947Z,52527.06
2023-01-29T21:24:39.200Z,52534.29
2023-01-29T21:27:10.699Z,52510.58
2023-01-29T21:29:42.067Z,52533.49
2023-01-29T21:32:14.895Z,52523.84
2023-01-29T21:34:46.450Z,52524.65
2023-01-29T21:37:17.610Z,52546.35
2023-01-29T21:39:48.802Z,52540.32
2023-01-29T21:42:45.995Z,52526.26
2023-01-29T21:45:17.262Z,52545.95
2023-01-29T21:47:48.801Z,52539.52
2023-01-29T21:50:20.343Z,52529.07
2023-01-29T21:52:51.887Z,52529.47
2023-01-29T21:55:22.915Z,52553.59
2023-01-29T21:57:54.182Z,52529.88
2023-01-29T22:00:25.449Z,52531.08
2023-01-29T22:02:56.645Z,52529.88
2023-01-29T22:05:29.380Z,52524.24
2023-01-29T22:08:02.755Z,52523.85
2023-01-29T22:10:37.128Z,52522.64
2023-01-29T22:13:09.330Z,52545.14
2023-01-29T22:15:43.749Z,52539.93
2023-01-29T22:18:15.319Z,52519.02
2023-01-29T22:20:46.485Z,52530.68
2023-01-29T22:23:17.645Z,52529.07
2023-01-29T22:25:50.009Z,52520.63
2023-01-29T22:28:21.235Z,52540.73
2023-01-29T22:30:52.442Z,52516.61
2023-01-29T22:33:24.411Z,52543.54
2023-01-29T22:35:57.613Z,52533.09
2023-01-29T22:38:28.902Z,52523.45
2023-01-29T22:41:01.282Z,52532.69
2023-01-29T22:43:32.752Z,52528.27
2023-01-29T22:46:03.888Z,52530.27
2023-01-29T22:48:35.947Z,52518.63
2023-01-29T22:51:14.188Z,52532.69
2023-01-29T22:53:51.268Z,52541.52
2023-01-29T22:56:27.884Z,52538.31
2023-01-29T22:59:03.375Z,52527.06
2023-01-29T23:01:34.571Z,52525.05
2023-01-29T23:04:05.669Z,52532.29
2023-01-29T23:06:37.436Z,52535.51
2023-01-29T23:09:08.838Z,52549.57
2023-01-29T23:11:41.673Z,52539.52
2023-01-29T23:14:14.795Z,52531.89
2023-01-29T23:16:46.103Z,52543.95
2023-01-29T23:19:17.847Z,52532.69
2023-01-29T23:21:49.374Z,52534.70
2023-01-29T23:24:20.756Z,52529.48
2023-01-29T23:27:09.662Z,52534.70
2023-01-29T23:29:41.296Z,52529.48
2023-01-29T23:32:12.339Z,52520.23
2023-01-29T23:34:43.615Z,52537.51
2023-01-29T23:37:14.734Z,52551.18
2023-01-29T23:39:46.433Z,52536.30
2023-01-29T23:42:18.331Z,52537.51
2023-01-29T23:44:49.911Z,52533.89
2023-01-29T23:47:20.924Z,52533.49
2023-01-29T23:49:53.200Z,52535.91
2023-01-29T23:52:24.564Z,52526.66
2023-01-29T23:54:56.110Z,52523.45
2023-01-29T23:57:27.508Z,52531.48
2023-01-29T23:59:58.781Z,52508.98
